createdAt,value
2023-01-09T00:01:30.022Z,7.31
2023-01-09T00:03:57.677Z,7.36
2023-01-09T00:06:25.308Z,7.37
2023-01-09T00:08:52.628Z,7.22
2023-01-09T00:11:20.747Z,7.20
2023-01-09T00:13:48.190Z,7.20
2023-01-09T00:16:16.717Z,7.03
2023-01-09T00:18:44.098Z,6.83
2023-01-09T00:21:13.514Z,6.96
2023-01-09T00:23:41.086Z,6.89
2023-01-09T00:26:17.095Z,6.95
2023-01-09T00:28:47.592Z,6.93
2023-01-09T00:31:16.146Z,6.89
2023-01-09T00:33:50.472Z,6.85
2023-01-09T00:36:18.176Z,6.80
2023-01-09T00:38:45.459Z,6.73
2023-01-09T00:41:23.332Z,6.79
2023-01-09T00:43:58.726Z,6.74
2023-01-09T00:46:38.881Z,6.79
2023-01-09T00:49:09.738Z,6.81
2023-01-09T00:51:39.185Z,6.86
2023-01-09T00:54:06.930Z,6.87
2023-01-09T00:56:36.268Z,6.78
2023-01-09T00:59:04.705Z,6.77
2023-01-09T01:01:32.354Z,6.74
2023-01-09T01:04:19.814Z,6.74
2023-01-09T01:07:05.872Z,6.65
2023-01-09T01:09:33.243Z,6.63
2023-01-09T01:12:07.233Z,6.67
2023-01-09T01:14:39.599Z,6.65
2023-01-09T01:17:08.302Z,6.70
2023-01-09T01:19:36.444Z,6.58
2023-01-09T01:22:04.121Z,6.64
2023-01-09T01:24:31.542Z,6.63
2023-01-09T01:26:59.117Z,6.57
2023-01-09T01:29:27.882Z,6.57
2023-01-09T01:31:55.531Z,6.65
2023-01-09T01:34:23.127Z,6.45
2023-01-09T01:36:50.698Z,6.55
2023-01-09T01:39:18.211Z,6.50
2023-01-09T01:41:45.865Z,6.44
2023-01-09T01:45:00.029Z,6.37
2023-01-09T01:47:49.091Z,6.40
2023-01-09T01:50:49.917Z,6.33
2023-01-09T01:53:39.756Z,6.14
2023-01-09T01:56:30.504Z,6.12
2023-01-09T01:59:36.747Z,6.07
2023-01-09T02:02:05.296Z,6.12
2023-01-09T02:04:40.134Z,6.12
2023-01-09T02:07:10.315Z,6.08
2023-01-09T02:09:42.169Z,6.08
2023-01-09T02:12:26.075Z,6.06
2023-01-09T02:15:05.097Z,6.02
2023-01-09T02:18:04.305Z,5.98
2023-01-09T02:20:50.703Z,6.05
2023-01-09T02:23:50.930Z,6.04
2023-01-09T02:26:49.032Z,6.07
2023-01-09T02:29:43.956Z,6.05
2023-01-09T02:32:29.542Z,6.07
2023-01-09T02:35:32.883Z,6.05
2023-01-09T02:38:15.299Z,6.09
2023-01-09T02:41:11.412Z,6.11
2023-01-09T02:43:41.811Z,6.15
2023-01-09T02:46:21.797Z,6.15
2023-01-09T02:48:54.441Z,6.09
2023-01-09T02:51:54.413Z,5.98
2023-01-09T02:54:49.692Z,5.91
2023-01-09T02:57:49.872Z,5.94
2023-01-09T03:00:32.560Z,5.95
2023-01-09T03:03:11.619Z,5.81
2023-01-09T03:05:51.982Z,5.73
2023-01-09T03:08:25.180Z,5.64
2023-01-09T03:11:06.803Z,5.68
2023-01-09T03:13:46.080Z,5.70
2023-01-09T03:16:21.786Z,5.67
2023-01-09T03:18:51.892Z,5.62
2023-01-09T03:21:21.681Z,5.57
2023-01-09T03:23:58.576Z,5.68
2023-01-09T03:26:29.198Z,5.66
2023-01-09T03:28:57.772Z,5.62
2023-01-09T03:31:25.931Z,5.71
2023-01-09T03:33:53.789Z,5.62
2023-01-09T03:36:22.945Z,5.56
2023-01-09T03:38:51.536Z,5.49
2023-01-09T03:41:19.892Z,5.47
2023-01-09T03:43:48.601Z,5.43
2023-01-09T03:46:17.613Z,5.44
2023-01-09T03:48:44.967Z,5.40
2023-01-09T03:51:12.608Z,5.31
2023-01-09T03:53:40.006Z,5.30
2023-01-09T03:56:08.061Z,5.31
2023-01-09T03:58:35.356Z,5.29
2023-01-09T04:01:05.971Z,5.33
2023-01-09T04:03:33.334Z,5.33
2023-01-09T04:06:01.927Z,5.31
2023-01-09T04:08:29.179Z,5.31
2023-01-09T04:10:57.090Z,5.28
2023-01-09T04:13:24.507Z,5.35
2023-01-09T04:15:52.033Z,5.44
2023-01-09T04:18:19.313Z,5.37
2023-01-09T04:20:50.044Z,5.38
2023-01-09T04:23:17.466Z,5.37
2023-01-09T04:25:45.898Z,5.44
2023-01-09T04:28:13.262Z,5.50
2023-01-09T04:30:40.808Z,5.59
2023-01-09T04:33:08.076Z,5.67
2023-01-09T04:35:35.645Z,5.70
2023-01-09T04:38:03.022Z,5.72
2023-01-09T04:40:30.596Z,5.70
2023-01-09T04:42:57.804Z,5.63
2023-01-09T04:45:25.375Z,5.61
2023-01-09T04:47:52.658Z,5.71
2023-01-09T04:50:20.277Z,5.80
2023-01-09T04:52:47.570Z,5.84
2023-01-09T04:55:15.140Z,5.90
2023-01-09T04:57:42.377Z,5.92
2023-01-09T05:00:12.403Z,6.00
2023-01-09T05:02:40.943Z,6.00
2023-01-09T05:05:11.707Z,6.03
2023-01-09T05:07:39.906Z,6.06
2023-01-09T05:10:10.156Z,6.08
2023-01-09T05:12:37.821Z,6.17
2023-01-09T05:15:07.009Z,6.15
2023-01-09T05:17:34.819Z,6.26
2023-01-09T05:20:02.447Z,6.31
2023-01-09T05:22:30.059Z,6.40
2023-01-09T05:25:00.276Z,6.17
2023-01-09T05:27:28.191Z,6.26
2023-01-09T05:29:55.837Z,6.22
2023-01-09T05:32:23.178Z,6.21
2023-01-09T05:34:50.751Z,6.31
2023-01-09T05:37:18.029Z,6.35
2023-01-09T05:39:45.593Z,6.44
2023-01-09T05:42:12.841Z,6.56
2023-01-09T05:44:40.462Z,6.54
2023-01-09T05:47:07.749Z,6.62
2023-01-09T05:49:35.266Z,6.60
2023-01-09T05:52:02.683Z,6.70
2023-01-09T05:54:30.486Z,6.76
2023-01-09T05:56:58.079Z,6.78
2023-01-09T05:59:25.678Z,6.81
2023-01-09T06:01:54.479Z,6.86
2023-01-09T06:04:22.372Z,6.95
2023-01-09T06:06:49.637Z,6.90
2023-01-09T06:09:17.159Z,7.11
2023-01-09T06:11:44.479Z,7.23
2023-01-09T06:14:12.055Z,7.27
2023-01-09T06:16:39.421Z,7.34
2023-01-09T06:19:07.312Z,7.43
2023-01-09T06:21:34.829Z,7.36
2023-01-09T06:24:02.463Z,7.39
2023-01-09T06:26:29.857Z,7.41
2023-01-09T06:28:57.554Z,7.41
2023-01-09T06:31:25.537Z,7.38
2023-01-09T06:33:54.098Z,7.39
2023-01-09T06:36:22.595Z,7.40
2023-01-09T06:38:50.354Z,7.41
2023-01-09T06:41:18.469Z,7.51
2023-01-09T06:43:46.063Z,7.60
2023-01-09T06:46:13.528Z,7.54
2023-01-09T06:48:41.157Z,7.56
2023-01-09T06:51:08.551Z,7.49
2023-01-09T06:53:36.156Z,7.46
2023-01-09T06:56:03.733Z,7.39
2023-01-09T06:58:31.345Z,7.29
2023-01-09T07:01:01.640Z,7.26
2023-01-09T07:03:29.423Z,7.15
2023-01-09T07:05:57.021Z,7.20
2023-01-09T07:08:24.724Z,7.25
2023-01-09T07:10:52.892Z,7.33
2023-01-09T07:13:20.495Z,7.33
2023-01-09T07:15:47.873Z,7.27
2023-01-09T07:18:15.608Z,7.39
2023-01-09T07:20:42.955Z,7.38
2023-01-09T07:23:14.482Z,7.50
2023-01-09T07:25:45.725Z,7.42
2023-01-09T07:28:13.433Z,7.47
2023-01-09T07:30:40.793Z,7.55
2023-01-09T07:33:08.409Z,7.52
2023-01-09T07:35:35.981Z,7.52
2023-01-09T07:38:03.578Z,7.57
2023-01-09T07:40:31.037Z,7.62
2023-01-09T07:42:58.622Z,7.76
2023-01-09T07:45:25.954Z,7.83
2023-01-09T07:47:53.591Z,7.82
2023-01-09T07:50:21.079Z,7.84
2023-01-09T07:52:48.860Z,7.82
2023-01-09T07:55:17.563Z,7.89
2023-01-09T07:57:50.196Z,8.05
2023-01-09T08:00:19.068Z,8.02
2023-01-09T08:02:51.001Z,7.98
2023-01-09T08:05:19.130Z,8.04
2023-01-09T08:07:46.732Z,8.02
2023-01-09T08:10:14.063Z,8.24
2023-01-09T08:12:44.421Z,8.28
2023-01-09T08:15:12.782Z,8.40
2023-01-09T08:17:43.996Z,8.49
2023-01-09T08:20:13.466Z,8.45
2023-01-09T08:22:50.608Z,8.70
2023-01-09T08:25:18.703Z,8.87
2023-01-09T08:27:47.171Z,9.03
2023-01-09T08:30:15.870Z,9.10
2023-01-09T08:32:44.127Z,9.16
2023-01-09T08:35:12.074Z,9.23
2023-01-09T08:37:39.649Z,9.15
2023-01-09T08:40:07.909Z,9.24
2023-01-09T08:42:54.827Z,9.28
2023-01-09T08:45:40.786Z,9.29
2023-01-09T08:48:08.750Z,9.30
2023-01-09T08:50:36.153Z,9.24
2023-01-09T08:53:03.903Z,9.23
2023-01-09T08:55:31.257Z,9.24
2023-01-09T08:57:58.841Z,9.33
2023-01-09T09:00:26.658Z,9.26
2023-01-09T09:02:57.322Z,9.27
2023-01-09T09:05:27.638Z,9.22
2023-01-09T09:07:55.950Z,9.13
2023-01-09T09:10:26.884Z,9.25
2023-01-09T09:12:57.880Z,9.22
2023-01-09T09:15:28.243Z,9.35
2023-01-09T09:17:59.795Z,9.26
2023-01-09T09:20:31.273Z,9.39
2023-01-09T09:22:59.327Z,9.39
2023-01-09T09:25:27.845Z,9.47
2023-01-09T09:28:01.190Z,9.46
2023-01-09T09:30:28.855Z,9.43
2023-01-09T09:32:56.660Z,9.35
2023-01-09T09:35:24.072Z,9.57
2023-01-09T09:38:03.921Z,9.67
2023-01-09T09:40:43.004Z,9.59
2023-01-09T09:44:32.463Z,9.73
2023-01-09T09:47:11.078Z,9.82
2023-01-09T09:50:17.702Z,9.76
2023-01-09T09:52:50.705Z,9.93
2023-01-09T09:55:32.289Z,10.13
2023-01-09T09:58:30.742Z,10.01
2023-01-09T10:01:01.229Z,10.22
2023-01-09T10:03:49.202Z,10.03
2023-01-09T10:06:31.362Z,10.39
2023-01-09T10:09:16.819Z,10.30
2023-01-09T10:12:31.791Z,10.34
2023-01-09T10:15:17.972Z,10.72
2023-01-09T10:17:48.377Z,10.72
2023-01-09T10:20:36.634Z,10.97
2023-01-09T10:23:38.349Z,11.12
2023-01-09T10:26:21.969Z,10.99
2023-01-09T10:29:23.317Z,10.92
2023-01-09T10:32:33.493Z,10.84
2023-01-09T10:35:36.115Z,11.00
2023-01-09T10:38:15.938Z,10.98
2023-01-09T10:41:07.874Z,10.99
2023-01-09T10:43:44.738Z,11.27
2023-01-09T10:46:35.875Z,11.42
2023-01-09T10:49:16.514Z,11.25
2023-01-09T10:51:52.385Z,11.46
2023-01-09T10:54:23.840Z,11.57
2023-01-09T10:57:12.675Z,11.40
2023-01-09T10:59:42.439Z,11.40
2023-01-09T11:02:37.451Z,11.31
2023-01-09T11:05:05.206Z,11.31
2023-01-09T11:07:39.272Z,11.26
2023-01-09T11:10:12.227Z,11.16
2023-01-09T11:12:40.648Z,11.11
2023-01-09T11:15:17.092Z,11.17
2023-01-09T11:17:50.546Z,11.27
2023-01-09T11:20:28.782Z,11.21
2023-01-09T11:22:59.008Z,11.15
2023-01-09T11:25:29.425Z,10.98
2023-01-09T11:28:09.836Z,11.12
2023-01-09T11:30:51.945Z,10.89
2023-01-09T11:33:24.794Z,10.82
2023-01-09T11:36:00.520Z,10.85
2023-01-09T11:38:31.906Z,10.89
2023-01-09T11:41:04.026Z,11.13
2023-01-09T11:43:40.163Z,11.06
2023-01-09T11:46:11.696Z,10.95
2023-01-09T11:48:59.299Z,10.54
2023-01-09T11:51:36.905Z,10.50
2023-01-09T11:54:23.821Z,10.36
2023-01-09T11:56:52.521Z,10.45
2023-01-09T11:59:26.441Z,10.21
2023-01-09T12:02:29.521Z,10.33
2023-01-09T12:05:15.963Z,10.25
2023-01-09T12:08:26.366Z,10.15
2023-01-09T12:11:21.465Z,10.05
2023-01-09T12:14:20.580Z,10.07
2023-01-09T12:17:06.543Z,10.06
2023-01-09T12:20:10.167Z,10.16
2023-01-09T12:23:23.336Z,10.18
2023-01-09T12:26:11.485Z,10.20
2023-01-09T12:29:29.280Z,10.10
2023-01-09T12:32:34.956Z,10.16
2023-01-09T12:35:34.283Z,10.29
2023-01-09T12:38:29.538Z,10.32
2023-01-09T12:41:23.926Z,10.29
2023-01-09T12:44:08.867Z,10.23
2023-01-09T12:46:53.881Z,10.18
2023-01-09T12:49:35.665Z,10.12
2023-01-09T12:52:23.456Z,10.17
2023-01-09T12:55:17.123Z,10.21
2023-01-09T12:57:52.410Z,10.22
2023-01-09T13:00:58.732Z,10.41
2023-01-09T13:04:03.639Z,10.50
2023-01-09T13:06:37.483Z,10.42
2023-01-09T13:09:43.328Z,10.33
2023-01-09T13:12:21.739Z,10.19
2023-01-09T13:15:33.102Z,10.10
2023-01-09T13:18:23.122Z,10.13
2023-01-09T13:20:56.793Z,10.12
2023-01-09T13:24:01.824Z,10.22
2023-01-09T13:26:42.015Z,10.17
2023-01-09T13:29:22.855Z,10.16
2023-01-09T13:32:01.197Z,10.12
2023-01-09T13:34:32.507Z,10.15
2023-01-09T13:37:00.998Z,10.17
2023-01-09T13:39:33.943Z,10.14
2023-01-09T13:42:24.997Z,10.27
2023-01-09T13:45:11.052Z,10.10
2023-01-09T13:47:39.023Z,10.06
2023-01-09T13:50:22.281Z,10.28
2023-01-09T13:52:50.660Z,10.19
2023-01-09T13:55:18.049Z,10.21
2023-01-09T13:57:45.664Z,10.26
2023-01-09T14:00:13.000Z,10.27
2023-01-09T14:02:44.997Z,10.41
2023-01-09T14:05:16.389Z,10.37
2023-01-09T14:07:49.399Z,10.39
2023-01-09T14:10:52.292Z,10.45
2023-01-09T14:13:44.933Z,10.48
2023-01-09T14:16:27.319Z,10.42
2023-01-09T14:19:06.286Z,10.34
2023-01-09T14:22:04.662Z,10.22
2023-01-09T14:24:43.066Z,10.22
2023-01-09T14:27:55.519Z,10.20
2023-01-09T14:30:38.322Z,10.18
2023-01-09T14:33:18.607Z,10.17
2023-01-09T14:36:24.269Z,10.12
2023-01-09T14:39:08.107Z,10.09
2023-01-09T14:42:00.814Z,9.96
2023-01-09T14:44:43.379Z,9.99
2023-01-09T14:47:43.306Z,10.03
2023-01-09T14:50:46.531Z,9.94
2023-01-09T14:53:24.644Z,9.92
2023-01-09T14:55:58.154Z,9.91
2023-01-09T14:58:36.977Z,9.86
2023-01-09T15:01:15.235Z,9.84
2023-01-09T15:03:59.060Z,9.75
2023-01-09T15:06:36.197Z,9.83
2023-01-09T15:09:15.993Z,9.83
2023-01-09T15:11:45.072Z,9.80
2023-01-09T15:14:43.633Z,9.79
2023-01-09T15:17:30.713Z,9.75
2023-01-09T15:20:04.972Z,9.61
2023-01-09T15:22:35.872Z,9.58
2023-01-09T15:25:45.410Z,9.53
2023-01-09T15:28:35.021Z,9.47
2023-01-09T15:31:18.212Z,9.44
2023-01-09T15:33:48.529Z,9.45
2023-01-09T15:36:21.262Z,9.43
2023-01-09T15:38:50.873Z,9.61
2023-01-09T15:41:49.496Z,9.63
2023-01-09T15:44:30.324Z,9.60
2023-01-09T15:47:01.494Z,9.60
2023-01-09T15:49:29.811Z,9.62
2023-01-09T15:51:57.888Z,9.74
2023-01-09T15:54:33.047Z,9.82
2023-01-09T15:57:25.500Z,9.60
2023-01-09T16:00:17.751Z,9.44
2023-01-09T16:03:06.708Z,9.48
2023-01-09T16:05:34.162Z,9.51
2023-01-09T16:08:02.703Z,9.47
2023-01-09T16:10:36.092Z,9.42
2023-01-09T16:13:03.959Z,9.38
2023-01-09T16:15:35.109Z,9.42
2023-01-09T16:18:15.620Z,9.40
2023-01-09T16:20:44.489Z,9.44
2023-01-09T16:23:29.641Z,9.43
2023-01-09T16:26:04.212Z,9.48
2023-01-09T16:28:32.304Z,9.50
2023-01-09T16:31:27.258Z,9.44
2023-01-09T16:34:07.439Z,9.45
2023-01-09T16:36:36.721Z,9.43
2023-01-09T16:39:04.839Z,9.53
2023-01-09T16:41:50.519Z,9.46
2023-01-09T16:44:19.531Z,9.48
2023-01-09T16:46:47.036Z,9.50
2023-01-09T16:49:23.655Z,9.45
2023-01-09T16:51:52.241Z,9.43
2023-01-09T16:54:20.993Z,9.42
2023-01-09T16:56:52.339Z,9.44
2023-01-09T16:59:26.698Z,9.53
2023-01-09T17:01:55.450Z,9.51
2023-01-09T17:04:26.101Z,9.44
2023-01-09T17:06:53.528Z,9.44
2023-01-09T17:09:24.593Z,9.44
2023-01-09T17:11:53.291Z,9.51
2023-01-09T17:14:20.978Z,9.50
2023-01-09T17:16:48.589Z,9.50
2023-01-09T17:19:20.735Z,9.52
2023-01-09T17:21:48.156Z,9.63
2023-01-09T17:24:34.365Z,9.46
2023-01-09T17:27:21.484Z,9.30
2023-01-09T17:29:49.127Z,9.36
2023-01-09T17:32:18.631Z,9.42
2023-01-09T17:34:46.401Z,9.46
2023-01-09T17:37:16.607Z,9.48
2023-01-09T17:39:45.864Z,9.48
2023-01-09T17:42:13.394Z,9.44
2023-01-09T17:44:41.082Z,9.50
2023-01-09T17:47:16.074Z,9.51
2023-01-09T17:49:44.193Z,9.50
2023-01-09T17:52:11.497Z,9.48
2023-01-09T17:54:39.973Z,9.43
2023-01-09T17:57:09.539Z,9.48
2023-01-09T17:59:37.240Z,9.51
2023-01-09T18:02:04.885Z,9.48
2023-01-09T18:04:32.576Z,9.52
2023-01-09T18:06:59.887Z,9.47
2023-01-09T18:09:27.487Z,9.48
2023-01-09T18:11:54.809Z,9.53
2023-01-09T18:14:22.358Z,9.56
2023-01-09T18:16:49.915Z,9.63
2023-01-09T18:19:17.537Z,9.67
2023-01-09T18:21:46.875Z,9.68
2023-01-09T18:24:14.520Z,9.68
2023-01-09T18:26:41.894Z,9.65
2023-01-09T18:29:11.575Z,9.62
2023-01-09T18:31:38.914Z,9.42
2023-01-09T18:34:07.561Z,9.42
2023-01-09T18:36:35.605Z,9.43
2023-01-09T18:39:05.585Z,9.46
2023-01-09T18:41:33.131Z,9.42
2023-01-09T18:44:01.962Z,9.47
2023-01-09T18:46:32.897Z,9.48
2023-01-09T18:49:04.026Z,9.34
2023-01-09T18:51:35.057Z,9.33
2023-01-09T18:54:02.858Z,9.38
2023-01-09T18:56:30.396Z,9.33
2023-01-09T18:58:58.323Z,9.39
2023-01-09T19:01:28.577Z,9.37
2023-01-09T19:03:57.934Z,9.30
2023-01-09T19:06:30.248Z,9.29
2023-01-09T19:09:01.126Z,9.25
2023-01-09T19:11:28.652Z,9.23
2023-01-09T19:13:56.547Z,9.26
2023-01-09T19:16:23.868Z,9.24
2023-01-09T19:18:51.610Z,9.34
2023-01-09T19:21:23.783Z,9.36
2023-01-09T19:23:51.444Z,9.31
2023-01-09T19:26:31.017Z,9.29
2023-01-09T19:28:59.599Z,9.23
2023-01-09T19:31:31.564Z,9.18
2023-01-09T19:33:59.268Z,9.26
2023-01-09T19:36:28.031Z,9.29
2023-01-09T19:39:00.952Z,9.31
2023-01-09T19:41:28.988Z,9.30
2023-01-09T19:43:56.807Z,9.30
2023-01-09T19:46:25.657Z,9.28
2023-01-09T19:48:54.250Z,9.24
2023-01-09T19:51:22.490Z,9.25
2023-01-09T19:56:30.322Z,9.28
2023-01-09T19:59:01.609Z,9.34
2023-01-09T20:01:33.171Z,9.38
2023-01-09T20:04:05.045Z,9.42
2023-01-09T20:06:32.886Z,9.38
2023-01-09T20:09:04.119Z,9.33
2023-01-09T20:11:33.233Z,9.31
2023-01-09T20:14:01.126Z,9.27
2023-01-09T20:16:30.865Z,9.23
2023-01-09T20:19:03.989Z,9.27
2023-01-09T20:21:31.443Z,9.27
2023-01-09T20:24:01.470Z,9.27
2023-01-09T20:26:30.456Z,9.26
2023-01-09T20:28:58.329Z,9.30
2023-01-09T20:31:28.586Z,9.32
2023-01-09T20:33:56.218Z,9.30
2023-01-09T20:36:29.183Z,9.33
2023-01-09T20:39:00.123Z,9.31
2023-01-09T20:41:30.831Z,9.34
2023-01-09T20:44:06.845Z,9.34
2023-01-09T20:46:41.377Z,9.35
2023-01-09T20:49:13.426Z,9.33
2023-01-09T20:51:46.123Z,9.36
2023-01-09T20:54:15.128Z,9.31
2023-01-09T20:56:42.988Z,9.29
2023-01-09T20:59:23.186Z,9.23
2023-01-09T21:01:51.568Z,9.23
2023-01-09T21:04:19.650Z,9.25
2023-01-09T21:06:49.733Z,9.24
2023-01-09T21:09:17.723Z,9.27
2023-01-09T21:11:45.449Z,9.26
2023-01-09T21:14:12.800Z,9.26
2023-01-09T21:16:40.491Z,9.31
2023-01-09T21:19:07.920Z,9.30
2023-01-09T21:21:35.534Z,9.28
2023-01-09T21:24:04.578Z,9.25
2023-01-09T21:26:32.294Z,9.18
2023-01-09T21:29:02.071Z,9.22
2023-01-09T21:31:35.566Z,9.24
2023-01-09T21:34:08.579Z,9.22
2023-01-09T21:36:36.626Z,9.11
2023-01-09T21:39:08.121Z,9.15
2023-01-09T21:41:54.865Z,9.16
2023-01-09T21:44:40.704Z,9.18
2023-01-09T21:47:08.706Z,9.20
2023-01-09T21:49:41.823Z,9.21
2023-01-09T21:52:13.878Z,9.17
2023-01-09T21:54:42.023Z,9.16
2023-01-09T21:57:10.443Z,9.18
2023-01-09T21:59:37.809Z,9.17
2023-01-09T22:02:05.416Z,9.18
2023-01-09T22:04:33.630Z,9.20
2023-01-09T22:07:01.344Z,9.22
2023-01-09T22:09:28.702Z,9.25
2023-01-09T22:11:57.553Z,9.24
2023-01-09T22:14:24.835Z,9.21
2023-01-09T22:16:52.448Z,9.20
2023-01-09T22:19:19.819Z,9.17
2023-01-09T22:21:48.263Z,9.05
2023-01-09T22:24:18.821Z,9.04
2023-01-09T22:26:46.702Z,9.05
2023-01-09T22:29:16.212Z,9.02
2023-01-09T22:31:44.073Z,9.00
2023-01-09T22:34:16.177Z,8.98
2023-01-09T22:36:45.988Z,8.99
2023-01-09T22:39:17.078Z,9.00
2023-01-09T22:41:45.624Z,8.99
2023-01-09T22:44:13.375Z,9.01
2023-01-09T22:46:41.178Z,9.00
2023-01-09T22:49:12.085Z,9.03
2023-01-09T22:51:40.205Z,8.97
2023-01-09T22:54:07.762Z,9.03
2023-01-09T22:56:35.705Z,9.02
2023-01-09T22:59:03.281Z,9.02
2023-01-09T23:01:31.016Z,8.98
2023-01-09T23:03:58.325Z,8.99
2023-01-09T23:06:26.168Z,8.98
2023-01-09T23:08:53.754Z,9.01
2023-01-09T23:11:45.397Z,9.06
2023-01-09T23:14:13.340Z,9.06
2023-01-09T23:16:41.137Z,9.08
2023-01-09T23:19:17.495Z,9.07
2023-01-09T23:21:46.085Z,9.09
2023-01-09T23:24:16.898Z,9.07
2023-01-09T23:26:45.142Z,9.04
2023-01-09T23:29:13.767Z,9.00
2023-01-09T23:31:41.507Z,9.01
2023-01-09T23:34:13.413Z,8.99
2023-01-09T23:36:41.761Z,8.96
2023-01-09T23:39:10.147Z,8.91
2023-01-09T23:42:03.778Z,8.90
2023-01-09T23:44:31.232Z,8.81
2023-01-09T23:46:58.872Z,8.81
2023-01-09T23:49:26.426Z,8.82
2023-01-09T23:52:12.292Z,8.68
2023-01-09T23:54:39.894Z,8.73
2023-01-09T23:57:07.223Z,8.64
2023-01-09T23:59:34.994Z,8.58
